Time;durP1;ratioP1;P1;durP2;ratioP2;P2;SDS_P1;SDS_P2;PMS_P1;PMS_P2;Temp;Humidity;BMP_temperature;BMP_pressure;BME280_temperature;BME280_humidity;BME280_pressure;Samples;Min_cycle;Max_cycle;Signal;HPM_P1;HPM_P2
2021/06/22 00:00:04;;;;;;;;;;;;;;;18.95;100.00;99864.41;5113168;28;19933;-72
2021/06/22 00:02:29;;;;;;;;;;;;;;;18.90;100.00;99860.66;5113311;28;19912;-72
2021/06/22 00:04:54;;;;;;;;;;;;;;;19.02;100.00;99867.94;5113683;28;19919;-72
2021/06/22 00:07:20;;;;;;;;;;;;;;;19.09;100.00;99868.00;5113151;28;19938;-72
2021/06/22 00:09:45;;;;;;;;;;;;;;;19.14;100.00;99864.78;5113384;28;20352;-72
2021/06/22 00:12:11;;;;;;;;;;;;;;;19.19;100.00;99868.50;5113014;28;19912;-72
2021/06/22 00:14:36;;;;;;;;;;;;;;;19.09;100.00;99862.69;5113336;28;19960;-72
2021/06/22 00:17:02;;;;;;;;;;;;;;;19.09;100.00;99873.31;5113300;28;20026;-72
2021/06/22 00:19:27;;;;;;;;;;;;;;;19.17;100.00;99859.91;5113409;28;19916;-72
2021/06/22 00:21:52;;;;;;;;;;;;;;;19.27;100.00;99854.25;5116741;28;19961;-72
2021/06/22 00:24:18;;;;;;;;;;;;;;;19.25;100.00;99858.97;5099605;28;19911;-72
2021/06/22 00:26:43;;;;;;;;;;;;;;;19.02;100.00;99854.66;5117461;28;19911;-72
2021/06/22 00:29:08;;;;;;;;;;;;;;;18.91;100.00;99859.69;5117320;28;20374;-72
2021/06/22 00:31:34;;;;;;;;;;;;;;;18.90;100.00;99858.00;5116959;28;20006;-72
2021/06/22 00:33:59;;;;;;;;;;;;;;;18.97;100.00;99862.41;5117049;28;19911;-72
2021/06/22 00:36:24;;;;;;;;;;;;;;;18.81;100.00;99859.97;5116974;28;20405;-72
2021/06/22 00:38:50;;;;;;;;;;;;;;;18.60;100.00;99843.00;5116899;28;19912;-72
2021/06/22 00:41:15;;;;;;;;;;;;;;;18.22;100.00;99833.56;5116811;28;20432;-72
2021/06/22 00:43:40;;;;;;;;;;;;;;;18.00;100.00;99830.03;5116502;28;19916;-72
2021/06/22 00:46:06;;;;;;;;;;;;;;;17.85;100.00;99835.34;5116631;28;19997;-71
2021/06/22 00:48:32;;;;;;;;;;;;;;;17.84;100.00;99847.78;5116719;28;19961;-71
2021/06/22 00:50:58;;;;;;;;;;;;;;;17.80;100.00;99850.97;5116663;28;19974;-72
2021/06/22 00:53:23;;;;;;;;;;;;;;;17.63;100.00;99840.50;5116626;28;19968;-71
2021/06/22 00:55:51;;;;;;;;;;;;;;;17.58;100.00;99847.34;5116643;28;20418;-71
2021/06/22 00:58:17;;;;;;;;;;;;;;;17.56;100.00;99846.72;5116757;28;19912;-71
2021/06/22 01:00:42;;;;;;;;;;;;;;;17.60;100.00;99848.81;5116695;28;20457;-71
2021/06/22 01:03:07;;;;;;;;;;;;;;;17.69;100.00;99850.38;5116365;28;20002;-71
2021/06/22 01:05:33;;;;;;;;;;;;;;;17.69;100.00;99845.09;5116335;28;19999;-72
2021/06/22 01:07:59;;;;;;;;;;;;;;;17.58;100.00;99844.69;5116111;28;20382;-71
2021/06/22 01:10:25;;;;;;;;;;;;;;;17.54;100.00;99849.53;5116374;28;19912;-71
2021/06/22 01:12:52;;;;;;;;;;;;;;;17.69;100.00;99850.38;5116110;28;20399;-71
2021/06/22 01:15:18;;;;;;;;;;;;;;;17.86;100.00;99851.06;5116026;28;19911;-71
2021/06/22 01:17:44;;;;;;;;;;;;;;;17.96;100.00;99848.16;5116205;28;19912;-71
2021/06/22 01:20:10;;;;;;;;;;;;;;;18.10;100.00;99852.59;5116076;28;20021;-72
2021/06/22 01:22:37;;;;;;;;;;;;;;;18.22;100.00;99852.94;5116123;28;19934;-71
2021/06/22 01:25:02;;;;;;;;;;;;;;;18.23;100.00;99856.44;5116376;28;19916;-71
2021/06/22 01:27:28;;;;;;;;;;;;;;;18.14;100.00;99842.44;5116255;28;19931;-71
2021/06/22 01:29:53;;;;;;;;;;;;;;;18.01;100.00;99837.78;5116540;28;19912;-71
2021/06/22 01:32:18;;;;;;;;;;;;;;;17.97;100.00;99836.53;5114619;28;20298;-71
2021/06/22 01:34:44;;;;;;;;;;;;;;;17.87;100.00;99835.97;5115841;28;19918;-71
2021/06/22 01:37:09;;;;;;;;;;;;;;;17.82;100.00;99831.25;5116029;28;19917;-71
2021/06/22 01:39:35;;;;;;;;;;;;;;;17.77;100.00;99836.25;5115748;28;19912;-71
2021/06/22 01:42:00;;;;;;;;;;;;;;;17.61;100.00;99845.16;5115561;28;19945;-71
2021/06/22 01:44:27;;;;;;;;;;;;;;;17.45;100.00;99845.34;5115479;28;19917;-71
2021/06/22 01:46:52;;;;;;;;;;;;;;;17.36;100.00;99844.59;5115538;28;20343;-72
2021/06/22 01:49:18;;;;;;;;;;;;;;;17.33;100.00;99842.28;5115533;28;19912;-72
2021/06/22 01:51:43;;;;;;;;;;;;;;;17.41;100.00;99838.75;5098098;28;19911;-72
2021/06/22 01:54:08;;;;;;;;;;;;;;;17.37;100.00;99837.47;5115399;28;19916;-72
2021/06/22 01:56:35;;;;;;;;;;;;;;;17.34;100.00;99836.00;5115441;28;20302;-72
2021/06/22 01:59:01;;;;;;;;;;;;;;;17.29;100.00;99837.56;5115595;28;19912;-72
2021/06/22 02:01:26;;;;;;;;;;;;;;;17.47;100.00;99848.63;5115341;28;20351;-71
2021/06/22 02:03:52;;;;;;;;;;;;;;;17.60;100.00;99850.66;5115639;28;19954;-72
2021/06/22 02:06:17;;;;;;;;;;;;;;;17.70;100.00;99849.38;5114916;28;20271;-71
2021/06/22 02:08:42;;;;;;;;;;;;;;;17.65;100.00;99849.13;5115619;28;19934;-72
2021/06/22 02:11:08;;;;;;;;;;;;;;;17.69;100.00;99854.88;5115144;28;20002;-72
2021/06/22 02:13:33;;;;;;;;;;;;;;;17.76;100.00;99844.38;5114996;28;19912;-72
2021/06/22 02:15:59;;;;;;;;;;;;;;;17.83;100.00;99855.91;5114985;28;19912;-71
2021/06/22 02:18:27;;;;;;;;;;;;;;;17.90;100.00;99862.13;5115041;28;19911;-72
2021/06/22 02:20:53;;;;;;;;;;;;;;;17.97;100.00;99862.22;5114919;28;19911;-71
2021/06/22 02:23:19;;;;;;;;;;;;;;;18.00;100.00;99867.97;5114949;28;19911;-72
2021/06/22 02:25:44;;;;;;;;;;;;;;;17.98;100.00;99864.69;5114870;28;19911;-72
2021/06/22 02:28:15;;;;;;;;;;;;;;;18.00;100.00;99861.84;5114719;28;19920;-71
2021/06/22 02:30:41;;;;;;;;;;;;;;;17.78;100.00;99863.56;5114880;28;19911;-72
2021/06/22 02:33:06;;;;;;;;;;;;;;;17.56;100.00;99868.75;5114616;28;19911;-71
2021/06/22 02:35:32;;;;;;;;;;;;;;;17.23;100.00;99871.69;5114313;28;20001;-71
2021/06/22 02:37:58;;;;;;;;;;;;;;;16.99;100.00;99869.22;5096447;28;19915;-71
2021/06/22 02:40:24;;;;;;;;;;;;;;;16.86;100.00;99876.94;5114529;28;19912;-72
2021/06/22 02:42:50;;;;;;;;;;;;;;;16.77;100.00;99876.13;5113749;28;19919;-71
2021/06/22 02:45:16;;;;;;;;;;;;;;;16.85;100.00;99867.34;5114448;28;19911;-71
2021/06/22 02:47:43;;;;;;;;;;;;;;;16.93;100.00;99875.22;5114402;28;19915;-71
2021/06/22 02:50:08;;;;;;;;;;;;;;;17.15;100.00;99873.59;5114940;28;19915;-71
2021/06/22 02:52:34;;;;;;;;;;;;;;;17.24;100.00;99861.91;5114138;28;19912;-71
2021/06/22 02:54:59;;;;;;;;;;;;;;;17.41;100.00;99867.88;5114243;28;19912;-71
2021/06/22 02:57:25;;;;;;;;;;;;;;;17.47;100.00;99872.47;5114342;28;19911;-71
2021/06/22 02:59:50;;;;;;;;;;;;;;;17.49;100.00;99867.81;5114208;28;19920;-71
2021/06/22 03:02:15;;;;;;;;;;;;;;;17.35;100.00;99874.72;5113508;28;19972;-71
2021/06/22 03:04:41;;;;;;;;;;;;;;;17.31;100.00;99873.41;5096646;28;19919;-71
2021/06/22 03:07:06;;;;;;;;;;;;;;;17.23;100.00;99868.22;5113872;28;19921;-71
2021/06/22 03:09:31;;;;;;;;;;;;;;;17.23;100.00;99865.56;5114324;28;19968;-71
2021/06/22 03:11:57;;;;;;;;;;;;;;;17.23;100.00;99866.38;5113973;28;20003;-71
2021/06/22 03:14:23;;;;;;;;;;;;;;;17.15;100.00;99871.75;5113830;28;19918;-71
2021/06/22 03:16:48;;;;;;;;;;;;;;;17.18;100.00;99879.34;5113864;28;19915;-71
2021/06/22 03:19:14;;;;;;;;;;;;;;;17.36;100.00;99880.84;5114080;28;19912;-71
2021/06/22 03:21:44;;;;;;;;;;;;;;;17.48;100.00;99879.41;5114194;28;19913;-71
2021/06/22 03:24:10;;;;;;;;;;;;;;;17.61;100.00;99886.75;5113774;28;20358;-71
2021/06/22 03:26:35;;;;;;;;;;;;;;;17.67;100.00;99884.19;5113670;28;19968;-71
2021/06/22 03:29:01;;;;;;;;;;;;;;;17.77;100.00;99894.56;5113618;28;20360;-71
2021/06/22 03:31:26;;;;;;;;;;;;;;;17.86;100.00;99897.97;5113586;28;19911;-71
2021/06/22 03:33:52;;;;;;;;;;;;;;;18.06;100.00;99896.41;5113553;28;20371;-70
2021/06/22 03:36:17;;;;;;;;;;;;;;;18.16;100.00;99894.31;5095415;28;20397;-71
2021/06/22 03:38:42;;;;;;;;;;;;;;;18.28;100.00;99901.78;5113283;28;19912;-71
2021/06/22 03:41:08;;;;;;;;;;;;;;;18.47;100.00;99893.25;5113412;28;19918;-71
2021/06/22 03:43:33;;;;;;;;;;;;;;;18.66;100.00;99883.88;5113589;28;19916;-71
2021/06/22 03:45:59;;;;;;;;;;;;;;;18.85;100.00;99887.78;5095194;28;20412;-71
2021/06/22 03:48:24;;;;;;;;;;;;;;;19.01;100.00;99890.22;5113356;28;19912;-71
2021/06/22 03:50:49;;;;;;;;;;;;;;;19.18;100.00;99893.44;5113365;28;19912;-71
2021/06/22 03:53:15;;;;;;;;;;;;;;;19.33;100.00;99902.13;5113483;28;20006;-71
2021/06/22 03:55:40;;;;;;;;;;;;;;;19.52;100.00;99902.50;5112740;28;19968;-71
2021/06/22 03:58:06;;;;;;;;;;;;;;;19.70;100.00;99896.72;5113460;28;19911;-71
2021/06/22 04:00:32;;;;;;;;;;;;;;;19.92;100.00;99895.66;5113304;28;19912;-71
2021/06/22 04:02:59;;;;;;;;;;;;;;;20.15;100.00;99894.53;5113162;28;20346;-71
2021/06/22 04:05:24;;;;;;;;;;;;;;;20.37;100.00;99896.09;5113572;28;19962;-71
2021/06/22 04:07:50;;;;;;;;;;;;;;;20.56;100.00;99897.22;5113038;28;19947;-71
2021/06/22 04:10:15;;;;;;;;;;;;;;;20.74;100.00;99894.00;5113300;28;19912;-71
2021/06/22 04:12:41;;;;;;;;;;;;;;;20.93;100.00;99903.06;5113118;28;19999;-72
2021/06/22 04:15:07;;;;;;;;;;;;;;;21.13;100.00;99897.78;5113027;28;19961;-72
2021/06/22 04:17:32;;;;;;;;;;;;;;;21.36;100.00;99898.22;5113199;28;19919;-72
2021/06/22 04:19:57;;;;;;;;;;;;;;;21.57;100.00;99899.88;5113556;28;20332;-72
2021/06/22 04:22:23;;;;;;;;;;;;;;;21.72;100.00;99898.81;5112647;28;19912;-72
2021/06/22 04:24:53;;;;;;;;;;;;;;;21.95;100.00;99909.88;5112867;28;19934;-72
2021/06/22 04:27:18;;;;;;;;;;;;;;;22.19;100.00;99900.38;5113177;28;20287;-72
2021/06/22 04:29:44;;;;;;;;;;;;;;;22.40;100.00;99905.44;5112852;28;19912;-72
2021/06/22 04:32:09;;;;;;;;;;;;;;;22.63;100.00;99904.91;5113146;28;19911;-72
2021/06/22 04:34:34;;;;;;;;;;;;;;;22.79;100.00;99906.28;5112986;28;19919;-72
2021/06/22 04:37:00;;;;;;;;;;;;;;;23.00;100.00;99912.38;5113060;28;19912;-72
2021/06/22 04:39:25;;;;;;;;;;;;;;;;;;5094634;28;19912;-72
2021/06/22 04:41:50;;;;;;;;;;;;;;;23.51;100.00;99916.72;5094581;28;20002;-72
2021/06/22 04:44:16;;;;;;;;;;;;;;;23.64;100.00;99921.13;5112432;28;19916;-72
2021/06/22 04:46:41;;;;;;;;;;;;;;;23.89;100.00;99919.25;5112546;28;20260;-72
2021/06/22 04:49:07;;;;;;;;;;;;;;;24.09;100.00;99921.75;5113190;28;20451;-72
2021/06/22 04:51:32;;;;;;;;;;;;;;;24.34;100.00;99926.22;5112828;28;19958;-72
2021/06/22 04:53:57;;;;;;;;;;;;;;;24.49;100.00;99930.16;5112652;28;19973;-72
2021/06/22 04:56:24;;;;;;;;;;;;;;;24.77;100.00;99933.31;5112743;28;19912;-72
2021/06/22 04:58:50;;;;;;;;;;;;;;;24.96;100.00;99932.25;5112661;28;19911;-72
2021/06/22 05:01:15;;;;;;;;;;;;;;;25.15;100.00;99941.09;5112734;28;19911;-72
2021/06/22 05:03:41;;;;;;;;;;;;;;;25.31;100.00;99923.50;5113027;28;19912;-72
2021/06/22 05:06:07;;;;;;;;;;;;;;;25.56;100.00;99929.50;5113300;28;20431;-72
2021/06/22 05:08:32;;;;;;;;;;;;;;;25.77;100.00;99935.31;5116519;28;19992;-72
2021/06/22 05:10:57;;;;;;;;;;;;;;;25.02;100.00;99930.53;5116114;28;19916;-72
2021/06/22 05:13:23;;;;;;;;;;;;;;;24.55;100.00;99941.03;5116006;28;19912;-72
2021/06/22 05:15:48;;;;;;;;;;;;;;;24.41;100.00;99943.06;5097718;28;20298;-72
2021/06/22 05:18:13;;;;;;;;;;;;;;;24.74;100.00;99932.75;5116225;28;20301;-72
2021/06/22 05:20:39;;;;;;;;;;;;;;;25.10;100.00;99933.69;5116181;28;20343;-72
2021/06/22 05:23:04;;;;;;;;;;;;;;;25.41;100.00;99934.47;5116398;28;20007;-73
2021/06/22 05:25:30;;;;;;;;;;;;;;;25.63;100.00;99943.59;5116111;28;19955;-73
2021/06/22 05:27:55;;;;;;;;;;;;;;;25.07;100.00;99939.50;5116097;28;20326;-72
2021/06/22 05:30:20;;;;;;;;;;;;;;;25.12;100.00;99939.66;5115905;28;19995;-73
2021/06/22 05:32:46;;;;;;;;;;;;;;;24.91;100.00;99932.94;5115895;28;19962;-73
2021/06/22 05:35:11;;;;;;;;;;;;;;;24.95;100.00;99935.97;5116073;28;20370;-73
2021/06/22 05:37:38;;;;;;;;;;;;;;;24.66;100.00;99938.41;5115663;28;20010;-73
2021/06/22 05:40:03;;;;;;;;;;;;;;;24.36;100.00;99941.00;5116009;28;19912;-73
2021/06/22 05:42:29;;;;;;;;;;;;;;;24.59;100.00;99943.03;5115762;28;19918;-72
2021/06/22 05:44:54;;;;;;;;;;;;;;;24.66;100.00;99942.94;5115450;28;20378;-72
2021/06/22 05:47:20;;;;;;;;;;;;;;;25.03;100.00;99938.31;5115706;28;19920;-72
2021/06/22 05:49:45;;;;;;;;;;;;;;;25.22;100.00;99927.56;5115480;28;19916;-72
2021/06/22 05:52:10;;;;;;;;;;;;;;;25.36;100.00;99935.19;5115750;28;19918;-73
2021/06/22 05:54:36;;;;;;;;;;;;;;;25.18;100.00;99936.06;5116056;28;20259;-73
2021/06/22 05:57:02;;;;;;;;;;;;;;;24.95;100.00;99944.00;5115542;28;19938;-72
2021/06/22 05:59:27;;;;;;;;;;;;;;;25.45;100.00;99943.72;5115362;28;20394;-72
2021/06/22 06:01:53;;;;;;;;;;;;;;;26.03;100.00;99948.31;5115943;28;19918;-73
2021/06/22 06:04:18;;;;;;;;;;;;;;;26.46;100.00;99949.75;5115313;28;20443;-73
2021/06/22 06:06:43;;;;;;;;;;;;;;;26.66;100.00;99946.69;5115246;28;19915;-73
2021/06/22 06:09:08;;;;;;;;;;;;;;;26.58;100.00;99947.06;5115468;28;19911;-73
2021/06/22 06:11:34;;;;;;;;;;;;;;;26.84;100.00;99946.50;5115113;28;19911;-73
2021/06/22 06:13:59;;;;;;;;;;;;;;;26.76;100.00;99956.81;5115030;28;20002;-73
2021/06/22 06:16:24;;;;;;;;;;;;;;;26.66;100.00;99957.41;5115073;28;19968;-73
2021/06/22 06:18:50;;;;;;;;;;;;;;;26.51;100.00;99952.56;5114564;28;20362;-73
2021/06/22 06:21:15;;;;;;;;;;;;;;;26.84;100.00;99959.13;5114948;28;20388;-73
2021/06/22 06:23:43;;;;;;;;;;;;;;;27.18;100.00;99956.56;5114948;28;19911;-73
2021/06/22 06:26:10;;;;;;;;;;;;;;;26.21;100.00;99959.97;5115005;28;19915;-73
2021/06/22 06:28:42;;;;;;;;;;;;;;;26.05;100.00;99959.63;5115151;28;19919;-73
2021/06/22 06:31:07;;;;;;;;;;;;;;;26.12;100.00;99956.81;5115081;28;20271;-73
2021/06/22 06:33:33;;;;;;;;;;;;;;;25.92;100.00;99957.19;5114801;28;20010;-71
2021/06/22 06:35:58;;;;;;;;;;;;;;;25.94;100.00;99965.00;5114579;28;20028;-73
2021/06/22 06:38:23;;;;;;;;;;;;;;;26.18;100.00;99963.94;5114383;28;20007;-73
2021/06/22 06:40:49;;;;;;;;;;;;;;;26.71;100.00;99967.47;5114530;28;19918;-73
2021/06/22 06:43:14;;;;;;;;;;;;;;;27.11;100.00;99962.06;5114429;28;19915;-72
2021/06/22 06:45:40;;;;;;;;;;;;;;;26.87;100.00;99964.03;5114875;28;19911;-73
2021/06/22 06:48:05;;;;;;;;;;;;;;;26.77;100.00;99971.91;5114327;28;19911;-72
2021/06/22 06:50:31;;;;;;;;;;;;;;;27.07;100.00;99967.09;5114521;28;19967;-73
2021/06/22 06:52:56;;;;;;;;;;;;;;;26.99;100.00;99963.97;5114197;28;20291;-72
2021/06/22 06:55:25;;;;;;;;;;;;;;;26.87;100.00;99972.09;5113999;28;19919;-73
2021/06/22 06:57:51;;;;;;;;;;;;;;;27.30;100.00;99962.66;5114150;28;20378;-72
2021/06/22 07:00:17;;;;;;;;;;;;;;;27.76;100.00;99972.34;5114003;28;20312;-72
2021/06/22 07:02:42;;;;;;;;;;;;;;;27.48;100.00;99964.31;5114195;28;19912;-73
2021/06/22 07:05:08;;;;;;;;;;;;;;;27.32;100.00;99971.31;5114177;28;19918;-72
2021/06/22 07:07:33;;;;;;;;;;;;;;;27.59;100.00;99968.81;5113864;28;19912;-73
2021/06/22 07:09:59;;;;;;;;;;;;;;;27.69;100.00;99962.78;5114009;28;20362;-72
2021/06/22 07:12:24;;;;;;;;;;;;;;;27.37;100.00;99966.03;5113857;28;19915;-73
2021/06/22 07:14:49;;;;;;;;;;;;;;;27.37;100.00;99962.50;5113922;28;19912;-73
2021/06/22 07:17:14;;;;;;;;;;;;;;;27.66;100.00;99963.25;5113702;28;20438;-73
2021/06/22 07:19:40;;;;;;;;;;;;;;;28.33;100.00;99962.38;5113675;28;19968;-73
2021/06/22 07:22:05;;;;;;;;;;;;;;;28.63;100.00;99961.94;5114035;28;19912;-73
2021/06/22 07:24:31;;;;;;;;;;;;;;;28.64;100.00;99963.56;5113747;28;20371;-73
2021/06/22 07:26:56;;;;;;;;;;;;;;;28.36;100.00;99957.28;5113599;28;19919;-72
2021/06/22 07:29:21;;;;;;;;;;;;;;;28.89;100.00;99955.78;5113486;28;19912;-73
2021/06/22 07:31:47;;;;;;;;;;;;;;;28.78;100.00;99967.50;5113999;28;20022;-73
2021/06/22 07:34:12;;;;;;;;;;;;;;;29.21;100.00;99962.31;5113346;28;19912;-73
2021/06/22 07:36:37;;;;;;;;;;;;;;;29.66;100.00;99956.50;5113487;28;19998;-73
2021/06/22 07:39:03;;;;;;;;;;;;;;;29.86;100.00;99959.34;5113216;28;20374;-73
2021/06/22 07:41:29;;;;;;;;;;;;;;;30.23;100.00;99961.19;5113492;28;19918;-73
2021/06/22 07:43:55;;;;;;;;;;;;;;;30.16;100.00;99955.19;5113294;28;19915;-73
2021/06/22 07:46:21;;;;;;;;;;;;;;;30.24;100.00;99952.03;5113660;28;20015;-73
2021/06/22 07:48:46;;;;;;;;;;;;;;;30.69;100.00;99953.28;5113552;28;20377;-73
2021/06/22 07:51:11;;;;;;;;;;;;;;;30.34;100.00;99956.66;5113535;28;19994;-73
2021/06/22 07:53:36;;;;;;;;;;;;;;;29.62;100.00;99952.69;5113342;28;19918;-73
2021/06/22 07:56:02;;;;;;;;;;;;;;;30.15;100.00;99960.88;5113637;28;19920;-73
2021/06/22 07:58:27;;;;;;;;;;;;;;;30.65;100.00;99960.31;5113289;28;19975;-73
2021/06/22 08:00:54;;;;;;;;;;;;;;;30.63;100.00;99965.16;5113257;28;19912;-73
2021/06/22 08:03:20;;;;;;;;;;;;;;;30.71;100.00;99961.94;5113628;28;19912;-73
2021/06/22 08:05:49;;;;;;;;;;;;;;;30.87;100.00;99968.22;5113038;28;19912;-73
2021/06/22 08:08:18;;;;;;;;;;;;;;;31.09;100.00;99970.72;5113394;28;20302;-73
2021/06/22 08:11:02;;;;;;;;;;;;;;;30.76;100.00;99970.09;5113050;28;19912;-73
2021/06/22 08:13:28;;;;;;;;;;;;;;;30.64;100.00;99968.66;5113304;28;19915;-73
2021/06/22 08:15:54;;;;;;;;;;;;;;;30.38;100.00;99965.06;5113082;28;19912;-73
2021/06/22 08:18:20;;;;;;;;;;;;;;;30.54;100.00;99964.88;5112904;28;20014;-73
2021/06/22 08:20:45;;;;;;;;;;;;;;;30.08;100.00;99966.50;5113174;28;19958;-72
2021/06/22 08:23:11;;;;;;;;;;;;;;;30.50;97.84;99963.75;5113021;28;19911;-73
2021/06/22 08:25:36;;;;;;;;;;;;;;;30.58;99.38;99978.66;5112991;28;19912;-73
2021/06/22 08:28:02;;;;;;;;;;;;;;;30.59;96.41;99966.75;5112936;28;19931;-73
2021/06/22 08:30:27;;;;;;;;;;;;;;;30.85;95.62;99969.56;5112880;28;19998;-72
2021/06/22 08:32:53;;;;;;;;;;;;;;;30.35;91.81;99975.31;5094684;28;20352;-73
2021/06/22 08:35:18;;;;;;;;;;;;;;;29.91;94.09;99971.25;5112916;28;19968;-70
2021/06/22 08:37:44;;;;;;;;;;;;;;;30.20;99.67;99975.22;5112824;28;19963;-72
2021/06/22 08:40:10;;;;;;;;;;;;;;;30.15;99.29;99972.47;5112846;28;19912;-72
2021/06/22 08:42:36;;;;;;;;;;;;;;;30.72;93.38;99977.09;5116364;28;19912;-71
2021/06/22 08:45:03;;;;;;;;;;;;;;;30.90;96.18;99981.22;5098708;28;19912;-72
2021/06/22 08:47:28;;;;;;;;;;;;;;;30.73;96.92;99984.09;5116776;28;19916;-72
2021/06/22 08:49:56;;;;;;;;;;;;;;;31.02;92.78;99979.09;5116836;28;19919;-73
2021/06/22 08:52:25;;;;;;;;;;;;;;;31.13;91.74;99976.41;5116612;28;19918;-72
2021/06/22 08:54:51;;;;;;;;;;;;;;;30.69;92.50;99977.63;5117278;28;20010;-71
2021/06/22 08:57:17;;;;;;;;;;;;;;;30.95;92.75;99978.53;5116932;28;19911;-72
2021/06/22 08:59:42;;;;;;;;;;;;;;;30.93;78.07;99977.97;5116500;28;19919;-72
2021/06/22 09:02:08;;;;;;;;;;;;;;;30.96;76.74;99974.75;5116561;28;20370;-72
2021/06/22 09:04:33;;;;;;;;;;;;;;;31.15;71.04;99980.47;5116403;28;20397;-72
2021/06/22 09:06:59;;;;;;;;;;;;;;;31.50;69.26;99984.31;5116366;28;19915;-72
2021/06/22 09:09:34;;;;;;;;;;;;;;;32.01;70.49;99981.56;5116454;28;19943;-72
2021/06/22 09:12:09;;;;;;;;;;;;;;;32.10;59.43;99982.63;5116961;28;19911;-72
2021/06/22 09:14:35;;;;;;;;;;;;;;;32.48;58.47;99984.97;5116369;28;20010;-72
2021/06/22 09:17:02;;;;;;;;;;;;;;;32.75;63.57;99984.56;5116409;28;19956;-73
2021/06/22 09:19:27;;;;;;;;;;;;;;;32.76;57.56;99986.19;5116036;28;19912;-72
2021/06/22 09:21:53;;;;;;;;;;;;;;;32.39;51.42;99987.41;5116150;28;19994;-72
2021/06/22 09:24:20;;;;;;;;;;;;;;;32.66;52.21;99985.16;5116082;28;19911;-72
2021/06/22 09:26:47;;;;;;;;;;;;;;;32.82;50.86;99980.47;5115987;28;20302;-72
2021/06/22 09:29:14;;;;;;;;;;;;;;;32.90;49.39;99979.03;5116009;28;19912;-72
2021/06/22 09:31:54;;;;;;;;;;;;;;;33.13;49.21;99977.56;5116048;28;19919;-72
2021/06/22 09:34:20;;;;;;;;;;;;;;;33.18;49.01;99982.16;5115776;28;20444;-72
2021/06/22 09:36:52;;;;;;;;;;;;;;;33.28;48.43;99982.09;5115883;28;19911;-74
2021/06/22 09:39:18;;;;;;;;;;;;;;;33.21;47.54;99981.59;5115738;28;19915;-72
2021/06/22 09:41:43;;;;;;;;;;;;;;;33.40;46.64;99966.25;5115899;28;20367;-70
2021/06/22 09:44:10;;;;;;;;;;;;;;;33.40;45.76;99971.66;5115385;28;19923;-71
2021/06/22 09:46:36;;;;;;;;;;;;;;;33.32;44.60;99975.00;5115589;28;20298;-71
2021/06/22 09:49:03;;;;;;;;;;;;;;;33.50;43.79;99982.47;5115586;28;19912;-71
2021/06/22 09:51:36;;;;;;;;;;;;;;;33.71;41.98;99969.50;5115513;28;19911;-71
2021/06/22 09:54:08;;;;;;;;;;;;;;;33.65;42.84;99969.84;5114528;28;19918;-71
2021/06/22 09:56:33;;;;;;;;;;;;;;;33.73;41.89;99972.78;5115603;28;19911;-72
2021/06/22 09:59:05;;;;;;;;;;;;;;;33.96;47.00;99965.75;5115345;28;19918;-72
2021/06/22 10:01:34;;;;;;;;;;;;;;;33.83;41.83;99959.09;5116094;28;19917;-72
2021/06/22 10:04:18;;;;;;;;;;;;;;;34.12;43.34;99968.31;5115294;28;20006;-73
2021/06/22 10:06:57;;;;;;;;;;;;;;;33.28;42.32;99976.69;5115498;28;20024;-70
2021/06/22 10:09:24;;;;;;;;;;;;;;;32.42;41.94;99965.19;5115202;28;19912;-71
2021/06/22 10:12:01;;;;;;;;;;;;;;;32.33;46.66;99958.69;5114965;28;20385;-72
2021/06/22 10:14:31;;;;;;;;;;;;;;;32.93;43.47;99964.91;5115378;28;19912;-71
2021/06/22 10:17:00;;;;;;;;;;;;;;;33.05;43.49;99968.13;5115150;28;20006;-72
2021/06/22 10:19:26;;;;;;;;;;;;;;;33.28;47.26;99965.81;5115009;28;20370;-72
2021/06/22 10:21:52;;;;;;;;;;;;;;;33.36;39.73;99959.75;5114878;28;19961;-72
2021/06/22 10:24:18;;;;;;;;;;;;;;;33.49;41.73;99953.72;5114998;28;20281;-72
2021/06/22 10:26:44;;;;;;;;;;;;;;;33.66;41.20;99942.41;5114846;28;19960;-72
2021/06/22 10:29:09;;;;;;;;;;;;;;;33.71;41.66;99941.53;5114716;28;20348;-71
2021/06/22 10:31:36;;;;;;;;;;;;;;;33.99;40.31;99940.72;5115032;28;19919;-72
2021/06/22 10:34:01;;;;;;;;;;;;;;;34.01;40.78;99935.81;5114623;28;19911;-73
2021/06/22 10:36:29;;;;;;;;;;;;;;;34.15;40.46;99938.63;5114389;28;19968;-73
2021/06/22 10:38:56;;;;;;;;;;;;;;;34.12;39.38;99935.69;5114559;28;19923;-74
2021/06/22 10:41:23;;;;;;;;;;;;;;;33.36;41.64;99943.47;5114595;28;20405;-73
2021/06/22 10:43:49;;;;;;;;;;;;;;;33.65;43.17;99931.81;5114713;28;19926;-73
2021/06/22 10:46:15;;;;;;;;;;;;;;;33.91;42.94;99940.53;5114513;28;19911;-73
2021/06/22 10:48:44;;;;;;;;;;;;;;;33.97;41.00;99934.75;5114429;28;19921;-73
2021/06/22 10:51:28;;;;;;;;;;;;;;;34.22;41.56;99936.41;5114340;28;19912;-71
2021/06/22 10:53:54;;;;;;;;;;;;;;;34.25;40.00;99935.00;5114581;28;19912;-71
2021/06/22 10:56:20;;;;;;;;;;;;;;;34.10;41.08;99932.47;5114509;28;20294;-73
2021/06/22 10:59:04;;;;;;;;;;;;;;;34.23;43.34;99929.03;5114223;28;19911;-71
2021/06/22 11:01:52;;;;;;;;;;;;;;;34.20;38.89;99919.56;5114160;28;20379;-72
2021/06/22 11:04:18;;;;;;;;;;;;;;;34.39;40.30;99918.75;5113677;28;20354;-71
2021/06/22 11:07:15;;;;;;;;;;;;;;;34.34;40.91;99922.38;5114134;28;19911;-71
2021/06/22 11:09:41;;;;;;;;;;;;;;;34.49;39.70;99914.03;5113996;28;19912;-70
2021/06/22 11:12:19;;;;;;;;;;;;;;;34.69;41.95;99912.13;5113866;28;19912;-71
2021/06/22 11:15:00;;;;;;;;;;;;;;;34.79;39.98;99911.97;5113961;28;19912;-71
2021/06/22 11:17:40;;;;;;;;;;;;;;;34.84;35.40;99903.75;5113867;28;19995;-72
2021/06/22 11:20:06;;;;;;;;;;;;;;;34.72;38.08;99898.72;5113798;28;19912;-71
2021/06/22 11:22:50;;;;;;;;;;;;;;;34.46;38.86;99901.00;5113635;28;19911;-72
2021/06/22 11:25:15;;;;;;;;;;;;;;;34.35;40.35;99898.69;5113613;28;20370;-73
2021/06/22 11:27:59;;;;;;;;;;;;;;;33.98;41.06;99894.78;5113952;28;19915;-72
2021/06/22 11:30:43;;;;;;;;;;;;;;;33.68;40.79;99898.63;5113657;28;19920;-73
2021/06/22 11:33:27;;;;;;;;;;;;;;;33.34;41.43;99897.56;5095331;28;20294;-72
2021/06/22 11:36:12;;;;;;;;;;;;;;;33.22;41.33;99901.78;5113586;28;19919;-73
2021/06/22 11:38:38;;;;;;;;;;;;;;;33.25;41.25;99891.16;5113069;28;20375;-72
2021/06/22 11:41:13;;;;;;;;;;;;;;;33.47;43.35;99901.53;5113770;28;19911;-72
2021/06/22 11:43:57;;;;;;;;;;;;;;;33.41;44.89;99905.38;5113354;28;19969;-72
2021/06/22 11:46:31;;;;;;;;;;;;;;;33.65;43.13;99902.78;5113361;28;20305;-75
2021/06/22 11:48:57;;;;;;;;;;;;;;;33.45;45.08;99901.03;5113323;28;19918;-72
2021/06/22 11:51:40;;;;;;;;;;;;;;;33.68;41.72;99895.94;5113474;28;19912;-75
2021/06/22 11:54:06;;;;;;;;;;;;;;;33.82;40.16;99899.59;5113778;28;19912;-74
2021/06/22 11:56:31;;;;;;;;;;;;;;;34.10;40.41;99899.84;5113121;28;19912;-75
2021/06/22 11:59:00;;;;;;;;;;;;;;;34.19;39.42;99889.91;5112285;28;19911;-75
2021/06/22 12:01:25;;;;;;;;;;;;;;;34.25;37.48;99891.47;5094985;28;19967;-73
2021/06/22 12:03:53;;;;;;;;;;;;;;;34.43;38.69;99881.75;5113191;28;19962;-75
2021/06/22 12:06:21;;;;;;;;;;;;;;;34.50;38.94;99888.44;5113434;28;20386;-73
2021/06/22 12:08:46;;;;;;;;;;;;;;;34.55;41.00;99882.94;5112657;28;20370;-74
2021/06/22 12:11:13;;;;;;;;;;;;;;;34.60;41.64;99882.06;5113182;28;19918;-74
2021/06/22 12:13:39;;;;;;;;;;;;;;;34.71;38.42;99880.00;5112592;28;20064;-73
2021/06/22 12:16:12;;;;;;;;;;;;;;;34.51;39.40;99872.91;5108930;28;20398;-73
2021/06/22 12:18:37;;;;;;;;;;;;;;;34.68;36.88;99870.50;5109288;28;19912;-75
2021/06/22 12:21:04;;;;;;;;;;;;;;;34.79;40.51;99871.16;5112371;28;20305;-73
2021/06/22 12:23:29;;;;;;;;;;;;;;;34.89;37.63;99868.25;5114458;28;20395;-73
2021/06/22 12:25:55;;;;;;;;;;;;;;;34.62;36.98;99868.16;5114986;28;19947;-73
2021/06/22 12:28:24;;;;;;;;;;;;;;;34.69;40.25;99871.31;5115955;28;19920;-73
2021/06/22 12:30:51;;;;;;;;;;;;;;;34.68;38.36;99866.97;5116345;28;19919;-74
2021/06/22 12:33:18;;;;;;;;;;;;;;;34.36;39.27;99862.22;5116221;28;19943;-74
2021/06/22 12:35:44;;;;;;;;;;;;;;;34.12;38.90;99859.56;5116377;28;20407;-74
2021/06/22 12:38:11;;;;;;;;;;;;;;;34.18;40.87;99858.41;5116206;28;19960;-73